createdAt,value
2023-01-29T00:01:22.656Z,37.05
2023-01-29T00:03:51.163Z,39.28
2023-01-29T00:06:17.807Z,41.23
2023-01-29T00:08:44.297Z,40.65
2023-01-29T00:11:10.839Z,42.30
2023-01-29T00:13:37.386Z,40.28
2023-01-29T00:16:05.412Z,40.13
2023-01-29T00:18:31.964Z,40.75
2023-01-29T00:20:58.551Z,41.80
2023-01-29T00:23:25.080Z,34.88
2023-01-29T00:25:51.577Z,42.93
2023-01-29T00:28:20.050Z,38.17
2023-01-29T00:30:46.667Z,42.90
2023-01-29T00:33:14.516Z,40.80
2023-01-29T00:35:41.086Z,37.13
2023-01-29T00:38:07.596Z,36.97
2023-01-29T00:40:37.851Z,37.58
2023-01-29T00:43:04.377Z,37.50
2023-01-29T00:45:30.916Z,37.13
2023-01-29T00:47:57.804Z,36.60
2023-01-29T00:50:25.697Z,38.00
2023-01-29T00:52:52.489Z,34.60
2023-01-29T00:55:19.160Z,35.00
2023-01-29T00:57:45.743Z,37.10
2023-01-29T01:00:15.020Z,35.90
2023-01-29T01:02:42.002Z,37.53
2023-01-29T01:05:10.127Z,36.77
2023-01-29T01:07:38.057Z,41.30
2023-01-29T01:10:05.142Z,39.13
2023-01-29T01:12:32.266Z,39.30
2023-01-29T01:14:58.733Z,38.58
2023-01-29T01:17:25.331Z,38.53
2023-01-29T01:19:51.869Z,38.45
2023-01-29T01:22:18.622Z,34.38
2023-01-29T01:24:46.597Z,37.50
2023-01-29T01:27:13.359Z,37.60
2023-01-29T01:29:39.952Z,41.45
2023-01-29T01:32:06.619Z,39.17
2023-01-29T01:34:33.311Z,36.58
2023-01-29T01:36:59.836Z,32.40
2023-01-29T01:39:26.394Z,37.65
2023-01-29T01:41:54.438Z,40.53
2023-01-29T01:44:53.505Z,38.22
2023-01-29T01:47:26.993Z,34.00
2023-01-29T01:49:56.123Z,39.03
2023-01-29T01:52:22.944Z,37.97
2023-01-29T01:54:50.848Z,39.80
2023-01-29T01:57:23.676Z,39.42
2023-01-29T01:59:55.165Z,39.78
2023-01-29T02:02:22.023Z,44.92
2023-01-29T02:04:49.697Z,42.30
2023-01-29T02:07:16.419Z,42.70
2023-01-29T02:09:49.629Z,38.60
2023-01-29T02:12:18.374Z,38.33
2023-01-29T02:14:44.979Z,37.53
2023-01-29T02:17:14.477Z,43.25
2023-01-29T02:19:47.953Z,42.15
2023-01-29T02:22:29.833Z,36.67
2023-01-29T02:25:06.893Z,34.00
2023-01-29T02:27:48.218Z,34.90
2023-01-29T02:30:21.229Z,38.08
2023-01-29T02:32:53.219Z,34.55
2023-01-29T02:35:29.584Z,36.77
2023-01-29T02:38:07.252Z,38.72
2023-01-29T02:40:39.308Z,35.78
2023-01-29T02:43:15.381Z,38.15
2023-01-29T02:45:49.031Z,42.13
2023-01-29T02:48:19.581Z,37.05
2023-01-29T02:50:53.745Z,38.83
2023-01-29T02:53:25.891Z,37.53
2023-01-29T02:55:55.337Z,38.67
2023-01-29T02:58:29.961Z,40.60
2023-01-29T03:01:03.580Z,39.33
2023-01-29T03:03:34.179Z,40.60
2023-01-29T03:06:05.128Z,36.97
2023-01-29T03:08:36.417Z,37.65
2023-01-29T03:11:05.821Z,36.85
2023-01-29T03:13:40.588Z,36.55
2023-01-29T03:16:15.029Z,38.40
2023-01-29T03:18:45.870Z,40.55
2023-01-29T03:21:18.578Z,37.55
2023-01-29T03:23:45.110Z,38.15
2023-01-29T03:26:13.263Z,39.93
2023-01-29T03:28:42.072Z,40.63
2023-01-29T03:31:13.711Z,39.45
2023-01-29T03:33:45.534Z,37.70
2023-01-29T03:36:17.012Z,36.60
2023-01-29T03:38:44.248Z,35.53
2023-01-29T03:41:18.757Z,37.92
2023-01-29T03:43:53.441Z,38.22
2023-01-29T03:46:27.336Z,36.83
2023-01-29T03:48:59.509Z,37.40
2023-01-29T03:51:32.336Z,36.20
2023-01-29T03:54:08.311Z,36.60
2023-01-29T03:56:44.792Z,42.27
2023-01-29T03:59:21.032Z,35.20
2023-01-29T04:01:53.460Z,39.67
2023-01-29T04:04:26.650Z,38.72
2023-01-29T04:06:57.579Z,40.07
2023-01-29T04:09:30.279Z,38.22
2023-01-29T04:12:02.458Z,37.50
2023-01-29T04:14:31.865Z,39.35
2023-01-29T04:17:03.524Z,38.73
2023-01-29T04:19:30.412Z,38.15
2023-01-29T04:22:03.989Z,42.70
2023-01-29T04:24:31.080Z,40.08
2023-01-29T04:27:07.418Z,37.43
2023-01-29T04:29:47.584Z,37.03
2023-01-29T04:32:24.457Z,35.95
2023-01-29T04:35:04.475Z,39.55
2023-01-29T04:37:37.710Z,38.80
2023-01-29T04:40:15.892Z,39.13
2023-01-29T04:42:49.164Z,39.63
2023-01-29T04:45:22.664Z,36.65
2023-01-29T04:47:58.209Z,34.40
2023-01-29T04:50:31.191Z,38.70
2023-01-29T04:53:03.780Z,37.90
2023-01-29T04:55:36.831Z,33.92
2023-01-29T04:58:08.520Z,43.87
2023-01-29T05:00:40.420Z,35.17
2023-01-29T05:03:08.645Z,41.58
2023-01-29T05:05:36.536Z,36.72
2023-01-29T05:08:04.785Z,37.13
2023-01-29T05:10:31.447Z,37.70
2023-01-29T05:13:00.914Z,35.28
2023-01-29T05:15:33.627Z,41.33
2023-01-29T05:18:00.203Z,35.05
2023-01-29T05:20:31.095Z,38.20
2023-01-29T05:22:57.888Z,40.10
2023-01-29T05:25:26.623Z,33.90
2023-01-29T05:27:54.039Z,35.40
2023-01-29T05:30:20.592Z,33.83
2023-01-29T05:32:47.104Z,37.17
2023-01-29T05:35:13.753Z,38.97
2023-01-29T05:37:41.606Z,34.58
2023-01-29T05:40:09.481Z,39.55
2023-01-29T05:42:36.401Z,40.05
2023-01-29T05:45:03.165Z,36.60
2023-01-29T05:47:29.977Z,35.08
2023-01-29T05:49:56.836Z,38.08
2023-01-29T05:52:23.361Z,46.70
2023-01-29T05:54:51.388Z,38.17
2023-01-29T05:57:17.880Z,38.67
2023-01-29T05:59:44.424Z,39.25
2023-01-29T06:02:11.048Z,36.58
2023-01-29T06:04:37.540Z,36.03
2023-01-29T06:07:04.225Z,35.08
2023-01-29T06:09:31.219Z,36.78
2023-01-29T06:11:59.153Z,40.15
2023-01-29T06:14:25.883Z,35.67
2023-01-29T06:16:52.368Z,35.03
2023-01-29T06:19:18.879Z,42.65
2023-01-29T06:21:45.363Z,41.92
2023-01-29T06:24:12.118Z,36.27
2023-01-29T06:26:38.797Z,36.20
2023-01-29T06:29:06.892Z,34.83
2023-01-29T06:31:38.820Z,35.30
2023-01-29T06:34:06.335Z,36.17
2023-01-29T06:36:33.589Z,36.63
2023-01-29T06:39:00.119Z,36.15
2023-01-29T06:41:26.762Z,34.40
2023-01-29T06:43:53.287Z,37.67
2023-01-29T06:46:21.265Z,37.22
2023-01-29T06:48:47.824Z,36.22
2023-01-29T06:51:14.498Z,32.47
2023-01-29T06:53:42.857Z,37.73
2023-01-29T06:56:10.697Z,38.15
2023-01-29T06:58:37.712Z,33.63
2023-01-29T07:01:05.787Z,39.88
2023-01-29T07:03:33.802Z,35.17
2023-01-29T07:06:00.434Z,37.10
2023-01-29T07:08:27.018Z,42.67
2023-01-29T07:10:53.636Z,37.38
2023-01-29T07:13:20.153Z,39.60
2023-01-29T07:15:46.606Z,39.97
2023-01-29T07:18:13.287Z,39.40
2023-01-29T07:20:42.891Z,41.70
2023-01-29T07:23:12.080Z,40.47
2023-01-29T07:25:41.747Z,37.70
2023-01-29T07:28:08.309Z,39.78
2023-01-29T07:33:19.872Z,37.53
2023-01-29T07:35:48.102Z,37.40
2023-01-29T07:38:14.703Z,39.55
2023-01-29T07:40:41.754Z,36.72
2023-01-29T07:43:09.636Z,38.03
2023-01-29T07:45:41.441Z,38.28
2023-01-29T07:48:11.464Z,41.60
2023-01-29T07:50:38.834Z,39.05
2023-01-29T07:53:13.059Z,37.47
2023-01-29T07:55:43.670Z,36.97
2023-01-29T07:58:11.710Z,39.17
2023-01-29T08:00:38.677Z,39.08
2023-01-29T08:03:07.493Z,41.57
2023-01-29T08:05:37.842Z,38.40
2023-01-29T08:08:07.657Z,40.10
2023-01-29T08:10:35.684Z,31.92
2023-01-29T08:13:02.848Z,33.63
2023-01-29T08:15:31.840Z,36.67
2023-01-29T08:17:58.792Z,39.97
2023-01-29T08:20:27.593Z,38.88
2023-01-29T08:22:59.142Z,39.10
2023-01-29T08:25:32.673Z,36.58
2023-01-29T08:28:01.726Z,37.28
2023-01-29T08:30:31.578Z,36.45
2023-01-29T08:46:34.713Z,36.00
2023-01-29T08:49:01.263Z,36.42
2023-01-29T08:51:27.843Z,38.60
2023-01-29T08:53:54.379Z,39.15
2023-01-29T08:56:21.171Z,37.17
2023-01-29T08:58:47.698Z,39.05
2023-01-29T09:01:14.822Z,40.30
2023-01-29T09:03:42.783Z,38.05
2023-01-29T09:06:10.696Z,39.70
2023-01-29T09:08:39.946Z,39.20
2023-01-29T09:11:14.463Z,34.83
2023-01-29T09:13:46.064Z,37.60
2023-01-29T09:16:16.266Z,35.07
2023-01-29T09:18:44.172Z,36.05
2023-01-29T09:21:16.517Z,38.05
2023-01-29T09:23:43.068Z,34.45
2023-01-29T09:26:09.715Z,38.23
2023-01-29T09:28:36.484Z,36.63
2023-01-29T09:31:03.491Z,35.83
2023-01-29T09:33:30.169Z,35.40
2023-01-29T09:36:28.618Z,30.20
2023-01-29T09:38:58.294Z,36.20
2023-01-29T09:41:39.215Z,37.58
2023-01-29T09:44:15.236Z,34.08
2023-01-29T09:46:44.563Z,33.10
2023-01-29T09:49:15.884Z,32.75
2023-01-29T09:51:48.951Z,36.05
2023-01-29T09:54:23.084Z,36.88
2023-01-29T09:56:56.724Z,34.73
2023-01-29T09:59:31.557Z,33.60
2023-01-29T10:02:10.121Z,35.80
2023-01-29T10:05:02.439Z,34.20
2023-01-29T10:08:02.701Z,37.40
2023-01-29T10:10:42.596Z,35.35
2023-01-29T10:13:18.759Z,37.38
2023-01-29T10:16:02.787Z,39.78
2023-01-29T10:22:30.737Z,33.25
2023-01-29T10:25:11.285Z,29.17
2023-01-29T10:27:48.478Z,38.53
2023-01-29T10:30:26.158Z,35.75
2023-01-29T10:32:57.699Z,35.45
2023-01-29T10:35:29.742Z,39.88
2023-01-29T10:37:58.359Z,32.38
2023-01-29T10:40:36.480Z,34.72
2023-01-29T10:43:33.505Z,36.13
2023-01-29T10:46:40.962Z,33.72
2023-01-29T10:49:24.935Z,36.55
2023-01-29T10:52:08.091Z,36.10
2023-01-29T10:54:59.742Z,33.28
2023-01-29T10:57:47.354Z,35.60
2023-01-29T11:00:22.417Z,34.72
2023-01-29T11:02:50.789Z,33.25
2023-01-29T11:05:26.187Z,33.43
2023-01-29T11:08:01.487Z,40.20
2023-01-29T11:10:33.102Z,36.47
2023-01-29T11:13:01.083Z,33.38
2023-01-29T11:15:32.029Z,36.57
2023-01-29T11:18:03.281Z,36.53
2023-01-29T11:20:32.155Z,37.58
2023-01-29T11:22:58.800Z,38.80
2023-01-29T11:25:25.710Z,37.03
2023-01-29T11:27:54.432Z,30.30
2023-01-29T11:30:25.842Z,36.55
2023-01-29T11:33:00.575Z,35.85
2023-01-29T11:35:27.230Z,35.90
2023-01-29T11:38:07.703Z,40.00
2023-01-29T11:40:39.475Z,35.88
2023-01-29T11:43:24.943Z,40.55
2023-01-29T11:46:01.526Z,34.47
2023-01-29T11:48:39.976Z,39.83
2023-01-29T11:51:22.719Z,38.03
2023-01-29T11:53:52.681Z,32.33
2023-01-29T11:56:23.388Z,37.90
2023-01-29T11:58:52.147Z,40.10
2023-01-29T12:01:31.069Z,35.20
2023-01-29T12:04:00.487Z,41.55
2023-01-29T12:06:34.897Z,33.28
2023-01-29T12:09:08.914Z,38.42
2023-01-29T12:11:35.750Z,38.28
2023-01-29T12:14:04.844Z,36.60
2023-01-29T12:16:38.429Z,40.13
2023-01-29T12:19:12.129Z,40.08
2023-01-29T12:21:46.727Z,42.20
2023-01-29T12:24:32.723Z,36.75
2023-01-29T12:27:06.787Z,40.73
2023-01-29T12:29:41.168Z,37.00
2023-01-29T12:32:18.796Z,36.65
2023-01-29T12:34:50.753Z,40.97
2023-01-29T12:37:22.410Z,30.90
2023-01-29T12:39:51.012Z,37.60
2023-01-29T12:42:23.374Z,39.03
2023-01-29T12:44:54.455Z,39.70
2023-01-29T12:47:26.043Z,40.47
2023-01-29T12:49:57.068Z,32.63
2023-01-29T12:52:45.487Z,36.33
2023-01-29T12:55:18.342Z,35.67
2023-01-29T12:57:50.668Z,35.53
2023-01-29T13:00:26.835Z,35.50
2023-01-29T13:03:00.855Z,33.95
2023-01-29T13:05:33.984Z,36.55
2023-01-29T13:08:06.632Z,34.25
2023-01-29T13:10:41.263Z,37.63
2023-01-29T13:13:16.728Z,36.27
2023-01-29T13:15:44.038Z,35.70
2023-01-29T13:18:48.381Z,34.63
2023-01-29T13:21:21.586Z,37.72
2023-01-29T13:24:25.684Z,39.72
2023-01-29T13:27:04.085Z,35.37
2023-01-29T13:29:31.638Z,38.85
2023-01-29T13:32:01.635Z,35.45
2023-01-29T13:34:32.559Z,34.42
2023-01-29T13:37:03.201Z,37.20
2023-01-29T13:39:33.169Z,34.20
2023-01-29T13:42:03.481Z,35.22
2023-01-29T13:44:34.755Z,33.75
2023-01-29T13:47:07.593Z,34.15
2023-01-29T13:49:40.363Z,36.58
2023-01-29T13:52:31.267Z,32.80
2023-01-29T13:55:01.415Z,33.88
2023-01-29T13:57:46.431Z,35.22
2023-01-29T14:00:56.017Z,33.85
2023-01-29T14:04:03.289Z,36.60
2023-01-29T14:06:55.219Z,36.70
2023-01-29T14:09:46.540Z,39.05
2023-01-29T14:12:44.392Z,35.92
2023-01-29T14:15:35.679Z,41.88
2023-01-29T14:18:18.413Z,38.33
2023-01-29T14:21:20.603Z,35.88
2023-01-29T14:23:51.837Z,33.20
2023-01-29T14:26:31.707Z,40.00
2023-01-29T14:29:03.753Z,37.80
2023-01-29T14:31:37.059Z,37.40
2023-01-29T14:34:08.912Z,31.45
2023-01-29T14:36:40.867Z,35.70
2023-01-29T14:39:23.504Z,36.95
2023-01-29T14:42:18.491Z,36.85
2023-01-29T14:45:10.070Z,39.37
2023-01-29T14:48:03.320Z,36.17
2023-01-29T14:50:43.657Z,35.15
2023-01-29T14:53:44.232Z,34.38
2023-01-29T14:56:56.461Z,37.92
2023-01-29T15:00:10.773Z,37.03
2023-01-29T15:03:37.606Z,32.05
2023-01-29T15:05:55.633Z,31.92
2023-01-29T15:08:27.836Z,32.72
2023-01-29T15:10:57.396Z,35.15
2023-01-29T15:13:32.780Z,34.80
2023-01-29T15:16:09.584Z,33.53
2023-01-29T15:18:39.067Z,36.15
2023-01-29T15:21:11.564Z,36.65
2023-01-29T15:23:38.985Z,33.63
2023-01-29T15:26:08.196Z,33.77
2023-01-29T15:28:36.125Z,31.80
2023-01-29T15:31:11.574Z,30.15
2023-01-29T15:33:38.354Z,31.23
2023-01-29T15:36:08.237Z,32.53
2023-01-29T15:38:35.456Z,34.23
2023-01-29T15:41:04.000Z,33.42
2023-01-29T15:43:34.575Z,30.52
2023-01-29T15:46:07.349Z,31.00
2023-01-29T15:48:37.551Z,27.83
2023-01-29T15:51:16.804Z,30.43
2023-01-29T15:53:48.822Z,29.52
2023-01-29T15:56:18.409Z,28.67
2023-01-29T15:58:48.319Z,28.95
2023-01-29T16:03:59.498Z,28.90
2023-01-29T16:06:26.796Z,31.38
2023-01-29T16:08:55.244Z,30.05
2023-01-29T16:11:22.054Z,30.52
2023-01-29T16:13:50.862Z,31.13
2023-01-29T16:16:23.819Z,28.70
2023-01-29T16:18:59.623Z,30.55
2023-01-29T16:21:30.138Z,29.98
2023-01-29T16:23:59.363Z,28.38
2023-01-29T16:26:31.601Z,32.20
2023-01-29T16:29:04.322Z,30.00
2023-01-29T16:31:32.807Z,25.17
2023-01-29T16:34:06.442Z,24.77
2023-01-29T16:36:33.623Z,30.63
2023-01-29T16:39:02.318Z,27.52
2023-01-29T16:41:31.053Z,21.88
2023-01-29T16:44:00.477Z,26.42
2023-01-29T16:46:34.623Z,26.15
2023-01-29T16:49:02.104Z,27.50
2023-01-29T16:51:30.365Z,23.50
2023-01-29T16:54:02.368Z,22.77
2023-01-29T16:56:33.027Z,22.00
2023-01-29T16:59:02.597Z,25.90
2023-01-29T17:01:30.337Z,25.13
2023-01-29T17:04:04.305Z,21.77
2023-01-29T17:06:32.370Z,25.00
2023-01-29T17:08:59.362Z,24.92
2023-01-29T17:11:31.506Z,19.07
2023-01-29T17:14:00.479Z,19.63
2023-01-29T17:16:30.992Z,21.30
2023-01-29T17:18:59.571Z,23.75
2023-01-29T17:21:28.380Z,22.77
2023-01-29T17:23:54.950Z,23.08
2023-01-29T17:26:23.107Z,25.65
2023-01-29T17:28:51.567Z,23.48
2023-01-29T17:31:21.981Z,25.13
2023-01-29T17:33:48.566Z,21.40
2023-01-29T17:36:17.495Z,19.77
2023-01-29T17:38:44.639Z,21.15
2023-01-29T17:41:18.076Z,24.15
2023-01-29T17:43:44.771Z,22.08
2023-01-29T17:46:14.624Z,21.43
2023-01-29T17:48:41.444Z,19.38
2023-01-29T17:51:11.580Z,22.27
2023-01-29T17:53:47.645Z,21.08
2023-01-29T17:56:16.926Z,20.48
2023-01-29T17:58:43.701Z,21.00
2023-01-29T18:01:10.242Z,23.45
2023-01-29T18:03:37.043Z,22.02
2023-01-29T18:06:06.639Z,22.55
2023-01-29T18:08:35.677Z,24.27
2023-01-29T18:11:06.803Z,22.50
2023-01-29T18:13:33.345Z,21.55
2023-01-29T18:15:59.942Z,25.42
2023-01-29T18:18:26.574Z,24.00
2023-01-29T18:20:53.182Z,22.90
2023-01-29T18:23:19.745Z,23.37
2023-01-29T18:25:46.157Z,23.35
2023-01-29T18:28:16.627Z,24.52
2023-01-29T18:30:43.699Z,27.35
2023-01-29T18:33:10.241Z,21.38
2023-01-29T18:35:36.777Z,19.27
2023-01-29T18:38:03.388Z,20.33
2023-01-29T18:40:31.511Z,25.65
2023-01-29T18:42:58.084Z,22.85
2023-01-29T18:45:26.408Z,23.43
2023-01-29T18:47:52.970Z,21.10
2023-01-29T18:50:19.712Z,29.40
2023-01-29T18:52:46.259Z,26.48
2023-01-29T18:55:13.069Z,34.22
2023-01-29T18:58:25.089Z,20.00
2023-01-29T19:00:27.716Z,23.17
2023-01-29T19:02:54.365Z,20.40
2023-01-29T19:05:20.893Z,22.83
2023-01-29T19:07:47.385Z,21.95
2023-01-29T19:10:13.902Z,21.90
2023-01-29T19:12:40.380Z,26.55
2023-01-29T19:15:09.999Z,24.55
2023-01-29T19:17:38.226Z,21.15
2023-01-29T19:20:05.289Z,21.67
2023-01-29T19:22:32.466Z,19.03
2023-01-29T19:24:59.375Z,22.02
2023-01-29T19:27:25.886Z,21.13
2023-01-29T19:29:52.560Z,22.23
2023-01-29T19:32:19.228Z,19.85
2023-01-29T19:34:47.249Z,20.17
2023-01-29T19:37:13.776Z,22.45
2023-01-29T19:39:40.500Z,23.88
2023-01-29T19:42:07.123Z,24.92
2023-01-29T19:44:33.674Z,29.38
2023-01-29T19:47:00.815Z,22.00
2023-01-29T19:49:29.061Z,23.27
2023-01-29T19:51:56.909Z,59.38
2023-01-29T19:54:23.505Z,44.92
2023-01-29T19:56:50.039Z,24.25
2023-01-29T19:59:16.577Z,18.13
2023-01-29T20:01:43.400Z,20.15
2023-01-29T20:04:09.892Z,26.17
2023-01-29T20:06:36.468Z,19.77
2023-01-29T20:09:04.672Z,17.13
2023-01-29T20:11:31.944Z,20.20
2023-01-29T20:13:59.185Z,18.73
2023-01-29T20:16:26.309Z,18.58
2023-01-29T20:52:34.444Z,17.88
2023-01-29T20:55:01.249Z,20.83
2023-01-29T20:57:28.084Z,18.43
2023-01-29T20:59:54.644Z,19.33
2023-01-29T21:02:21.280Z,23.25
2023-01-29T21:04:47.878Z,22.23
2023-01-29T21:07:14.444Z,19.73
2023-01-29T21:09:42.486Z,19.55
2023-01-29T21:12:11.382Z,20.63
2023-01-29T21:14:38.000Z,19.20
2023-01-29T21:17:04.551Z,18.55
2023-01-29T21:19:31.301Z,20.10
2023-01-29T21:21:57.897Z,19.23
2023-01-29T21:24:24.738Z,21.38
2023-01-29T21:26:53.053Z,18.00
2023-01-29T21:29:19.630Z,20.60
2023-01-29T21:31:46.178Z,19.23
2023-01-29T21:34:12.765Z,21.20
2023-01-29T21:36:39.295Z,18.35
2023-01-29T21:39:06.640Z,22.27
2023-01-29T21:41:33.219Z,23.02
2023-01-29T21:44:01.090Z,23.00
2023-01-29T21:46:27.642Z,21.90
2023-01-29T21:48:54.174Z,20.02
2023-01-29T21:51:20.758Z,24.02
2023-01-29T21:53:47.332Z,23.05
2023-01-29T21:56:13.842Z,25.00
2023-01-29T21:58:40.378Z,20.30
2023-01-29T22:01:23.043Z,18.27
2023-01-29T22:03:54.748Z,24.00
2023-01-29T22:06:21.283Z,23.13
2023-01-29T22:08:48.331Z,21.50
2023-01-29T22:11:15.534Z,22.92
2023-01-29T22:13:42.382Z,20.33
2023-01-29T22:16:10.331Z,21.48
2023-01-29T22:18:36.807Z,19.52
2023-01-29T22:21:03.771Z,21.87
2023-01-29T22:23:30.933Z,19.17
2023-01-29T22:26:02.895Z,21.13
2023-01-29T22:28:29.369Z,19.77
2023-01-29T22:31:00.592Z,24.45
2023-01-29T22:33:28.729Z,23.20
2023-01-29T22:35:55.385Z,23.92
2023-01-29T22:38:22.048Z,18.83
2023-01-29T22:40:49.599Z,22.58
2023-01-29T22:43:16.222Z,21.02
2023-01-29T22:45:42.744Z,25.23
2023-01-29T22:48:09.227Z,21.05
2023-01-29T22:50:37.292Z,22.70
2023-01-29T22:53:03.817Z,21.88
2023-01-29T22:55:30.712Z,23.17
2023-01-29T22:57:57.328Z,23.00
2023-01-29T23:00:24.196Z,26.02
2023-01-29T23:02:51.108Z,21.70
2023-01-29T23:05:18.084Z,22.35
2023-01-29T23:07:45.914Z,25.27
2023-01-29T23:10:14.315Z,24.90
2023-01-29T23:12:41.127Z,26.88
2023-01-29T23:15:08.226Z,27.10
2023-01-29T23:17:34.826Z,26.08
2023-01-29T23:20:01.323Z,26.23
2023-01-29T23:22:28.057Z,23.30
2023-01-29T23:24:55.968Z,25.17
2023-01-29T23:27:22.960Z,23.55
2023-01-29T23:29:49.426Z,23.15
2023-01-29T23:32:18.315Z,21.83
2023-01-29T23:34:44.979Z,24.45
2023-01-29T23:37:11.734Z,26.58
2023-01-29T23:39:38.601Z,21.73
2023-01-29T23:42:06.541Z,24.73
2023-01-29T23:44:33.137Z,22.80
2023-01-29T23:46:59.766Z,22.27
2023-01-29T23:49:26.357Z,24.48
2023-01-29T23:51:52.883Z,24.52
2023-01-29T23:54:19.423Z,22.50
2023-01-29T23:56:46.014Z,26.70
2023-01-29T23:59:15.385Z,24.73
